Time;durP1;ratioP1;P1;durP2;ratioP2;P2;SDS_P1;SDS_P2;PMS_P1;PMS_P2;Temp;Humidity;BMP_temperature;BMP_pressure;BME280_temperature;BME280_humidity;BME280_pressure;Samples;Min_cycle;Max_cycle;Signal;HPM_P1;HPM_P2
2023/03/02 00:00:58;;;;;;;24.17;13.17;;;;;;;41.74;37.99;100989.25;6101377;23;20386;-93
2023/03/02 00:03:25;;;;;;;26.83;12.10;;;;;;;41.49;38.59;100985.50;6101423;23;20394;-94
2023/03/02 00:05:52;;;;;;;30.70;13.03;;;;;;;41.27;38.32;100972.94;6101531;23;20464;-94
2023/03/02 00:08:19;;;;;;;36.67;14.20;;;;;;;41.24;38.46;100967.31;6125526;23;20379;-94
2023/03/02 00:10:45;;;;;;;25.10;12.30;;;;;;;41.30;38.59;100958.66;6100540;23;20454;-93
2023/03/02 00:13:12;;;;;;;24.87;12.90;;;;;;;41.18;38.99;100955.81;6100958;23;20390;-91
2023/03/02 00:15:39;;;;;;;26.93;16.13;;;;;;;41.46;37.42;100963.59;6100732;23;20393;-87
2023/03/02 00:18:05;;;;;;;45.20;13.93;;;;;;;41.49;38.07;100968.34;6098779;23;20874;-85
2023/03/02 00:20:33;;;;;;;26.80;13.87;;;;;;;41.43;37.95;100965.00;6100245;23;20417;-86
2023/03/02 00:22:59;;;;;;;32.10;14.17;;;;;;;41.08;38.83;100953.47;6099948;23;20437;-83
2023/03/02 00:25:25;;;;;;;24.87;11.50;;;;;;;41.23;38.53;100952.91;6100453;23;20444;-83
2023/03/02 00:27:51;;;;;;;37.23;12.30;;;;;;;41.27;38.24;100942.97;6100345;23;20382;-86
2023/03/02 00:30:17;;;;;;;35.77;10.97;;;;;;;41.27;38.64;100947.63;6100186;23;20877;-86
2023/03/02 00:32:44;;;;;;;21.23;11.33;;;;;;;41.22;38.54;100943.16;6100243;23;20397;-87
2023/03/02 00:35:10;;;;;;;28.70;13.80;;;;;;;41.16;39.05;100940.94;6099900;23;20409;-82
2023/03/02 00:37:37;;;;;;;30.10;13.47;;;;;;;41.16;38.22;100941.75;6100166;23;20393;-83
2023/03/02 00:40:08;;;;;;;22.73;11.20;;;;;;;41.19;38.27;100943.84;6125737;23;20724;-83
2023/03/02 00:42:35;;;;;;;23.37;13.20;;;;;;;41.25;38.38;100942.53;6100218;23;20933;-83
2023/03/02 00:45:02;;;;;;;25.80;10.13;;;;;;;41.35;38.05;100935.91;6075952;23;20390;-83
2023/03/02 00:47:28;;;;;;;49.60;15.17;;;;;;;41.26;37.73;100938.66;6099434;23;20417;-83
2023/03/02 00:49:55;;;;;;;34.60;11.97;;;;;;;41.13;38.39;100936.97;6099686;23;20389;-84
2023/03/02 00:52:22;;;;;;;35.37;12.20;;;;;;;41.19;38.59;100926.69;6099834;23;20382;-88
2023/03/02 00:54:48;;;;;;;23.87;11.70;;;;;;;40.96;38.34;100907.91;6099193;23;20420;-86
2023/03/02 00:57:13;;;;;;;26.60;13.07;;;;;;;41.14;38.25;100911.34;6124893;23;20426;-83
2023/03/02 00:59:40;;;;;;;30.50;12.20;;;;;;;41.06;38.01;100912.97;6099522;23;20878;-86
2023/03/02 01:02:15;;;;;;;30.00;12.07;;;;;;;41.16;38.43;100900.91;6124429;23;20441;-88
2023/03/02 01:04:45;;;;;;;28.27;13.63;;;;;;;41.14;38.38;100908.63;6100343;23;20788;-88
2023/03/02 01:07:14;;;;;;;26.73;11.07;;;;;;;40.99;38.56;100903.72;6126095;23;20358;-93
2023/03/02 01:09:42;;;;;;;42.50;11.97;;;;;;;41.08;38.73;100910.72;6125454;23;20385;-94
2023/03/02 01:12:10;;;;;;;29.17;14.27;;;;;;;41.25;38.05;100895.44;6099750;23;20873;-85
2023/03/02 01:14:42;;;;;;;23.10;11.10;;;;;;;41.02;38.66;100890.28;6099409;23;20412;-86
2023/03/02 01:17:09;;;;;;;18.23;11.50;;;;;;;41.01;38.80;100896.06;6125839;23;20359;-86
2023/03/02 01:19:35;;;;;;;39.00;12.80;;;;;;;41.19;38.41;100883.13;6099565;23;20390;-86
2023/03/02 01:22:02;;;;;;;26.63;13.30;;;;;;;41.18;39.18;100889.69;6099396;23;20378;-91
2023/03/02 01:24:31;;;;;;;33.13;13.77;;;;;;;41.10;38.56;100891.34;6100143;23;20395;-87
2023/03/02 01:26:57;;;;;;;32.87;13.73;;;;;;;41.12;38.12;100885.56;6100595;23;20378;-89
2023/03/02 01:29:23;;;;;;;27.17;11.20;;;;;;;40.93;38.53;100870.44;6074781;23;20442;-87
2023/03/02 01:31:49;;;;;;;18.77;10.07;;;;;;;40.99;38.05;100863.69;6099532;23;20997;-87
2023/03/02 01:34:17;;;;;;;25.43;12.93;;;;;;;41.04;38.54;100862.72;6099948;23;20390;-87
2023/03/02 01:36:47;;;;;;;29.77;13.03;;;;;;;41.12;38.29;100861.88;6099329;23;20929;-88
2023/03/02 01:39:14;;;;;;;28.83;11.93;;;;;;;40.99;38.38;100857.47;6076041;23;20386;-87
2023/03/02 01:41:42;;;;;;;28.00;12.30;;;;;;;41.20;38.46;100861.06;6100071;23;20477;-86
2023/03/02 01:44:46;;;;;;;22.77;11.20;;;;;;;41.23;38.85;100857.66;6099774;23;20409;-87
2023/03/02 01:47:34;;;;;;;33.17;13.70;;;;;;;41.28;38.18;100854.75;6124667;23;20378;-83
2023/03/02 01:50:19;;;;;;;22.90;12.67;;;;;;;41.05;38.33;100839.81;6099225;23;20425;-83
2023/03/02 01:52:46;;;;;;;33.03;15.27;;;;;;;41.14;38.62;100835.16;6099227;23;20413;-84
2023/03/02 01:55:19;;;;;;;22.60;11.50;;;;;;;41.30;38.54;100835.34;6124952;23;20440;-83
2023/03/02 01:57:51;;;;;;;31.17;12.50;;;;;;;41.29;37.93;100834.56;6125487;23;20378;-87
2023/03/02 02:00:26;;;;;;;35.80;13.00;;;;;;;41.27;38.10;100830.59;6125680;23;20401;-83
2023/03/02 02:03:07;;;;;;;25.00;10.97;;;;;;;41.56;37.69;100827.06;6099069;23;20386;-84
2023/03/02 02:05:35;;;;;;;31.67;13.43;;;;;;;41.70;37.30;100829.50;6125207;23;20441;-84
2023/03/02 02:08:02;;;;;;;25.47;12.73;;;;;;;41.57;37.61;100828.66;6122224;23;20449;-93
2023/03/02 02:10:28;;;;;;;28.63;13.43;;;;;;;41.69;37.68;100825.19;6099201;23;20926;-85
2023/03/02 02:12:54;;;;;;;25.73;11.70;;;;;;;41.54;37.22;100813.75;6098747;23;20863;-88
2023/03/02 02:15:21;;;;;;;21.03;10.33;;;;;;;41.52;37.67;100810.56;6100271;23;20386;-88
2023/03/02 02:17:47;;;;;;;26.97;15.30;;;;;;;41.54;37.61;100813.75;6099330;23;20387;-87
2023/03/02 02:20:37;;;;;;;31.03;12.47;;;;;;;41.58;38.23;100813.91;6099355;23;20417;-88
2023/03/02 02:23:49;;;;;;;37.13;12.57;;;;;;;41.76;37.75;100817.31;6126303;23;20379;-94
2023/03/02 02:26:25;;;;;;;33.90;14.03;;;;;;;41.83;37.35;100810.16;6100042;23;20386;-94
2023/03/02 02:29:00;;;;;;;25.53;12.17;;;;;;;41.60;36.64;100814.34;6099645;23;20413;-91
2023/03/02 02:31:42;;;;;;;22.97;13.10;;;;;;;41.47;36.70;100818.13;6099849;23;20524;-87
2023/03/02 02:34:14;;;;;;;26.47;13.27;;;;;;;41.57;36.92;100812.31;6099041;23;20393;-86
2023/03/02 02:36:45;;;;;;;19.73;11.43;;;;;;;41.58;37.09;100808.44;6124833;23;20397;-84
2023/03/02 02:39:18;;;;;;;29.33;12.00;;;;;;;41.40;37.55;100813.22;6122776;23;20390;-83
2023/03/02 02:41:46;;;;;;;27.07;12.80;;;;;;;41.15;37.67;100823.13;6099154;23;20382;-83
2023/03/02 02:44:15;;;;;;;27.00;11.10;;;;;;;41.30;37.72;100827.97;6098717;23;20414;-84
2023/03/02 02:46:45;;;;;;;26.13;12.87;;;;;;;41.22;38.69;100817.16;6099586;23;20382;-85
2023/03/02 02:49:49;;;;;;;33.07;13.00;;;;;;;41.23;38.07;100814.09;6093906;23;20386;-86
2023/03/02 02:52:29;;;;;;;35.70;14.07;;;;;;;41.08;38.06;100814.69;6124536;23;20409;-86
2023/03/02 02:55:02;;;;;;;24.63;11.90;;;;;;;41.10;37.85;100812.44;6099785;23;20437;-87
2023/03/02 02:57:36;;;;;;;25.00;10.93;;;;;;;41.17;37.64;100817.34;6119084;23;20441;-88
2023/03/02 03:00:05;;;;;;;31.60;12.87;;;;;;;41.29;37.30;100818.22;6125609;23;20406;-88
2023/03/02 03:03:27;;;;;;;28.97;11.57;;;;;;;41.40;36.92;100818.66;6126181;23;20373;-88
2023/03/02 03:06:03;;;;;;;33.43;12.73;;;;;;;41.58;36.58;100811.16;6102127;23;20447;-88
2023/03/02 03:08:44;;;;;;;31.23;11.87;;;;;;;41.42;37.03;100810.16;6100767;23;20409;-88
2023/03/02 03:11:22;;;;;;;22.30;12.13;;;;;;;41.65;36.86;100807.91;6127116;23;20853;-86
2023/03/02 03:13:55;;;;;;;21.30;12.23;;;;;;;41.77;36.80;100802.53;6101519;23;20481;-83
2023/03/02 03:16:22;;;;;;;34.43;13.37;;;;;;;41.61;37.38;100805.84;6100476;23;20386;-83
2023/03/02 03:18:50;;;;;;;24.33;13.73;;;;;;;41.45;37.86;100798.63;6126625;23;20358;-83
2023/03/02 03:21:17;;;;;;;29.97;13.20;;;;;;;41.42;37.92;100797.34;6100940;23;20449;-83
2023/03/02 03:23:43;;;;;;;30.93;14.53;;;;;;;41.49;37.90;100800.31;6100641;23;20382;-84
2023/03/02 03:26:11;;;;;;;33.47;13.20;;;;;;;41.50;38.09;100796.50;6101177;23;20386;-88
2023/03/02 03:28:38;;;;;;;28.00;13.53;;;;;;;41.42;38.60;100802.00;6100850;23;20405;-86
2023/03/02 03:31:04;;;;;;;26.87;11.40;;;;;;;41.45;37.20;100809.50;6100805;23;20914;-86
2023/03/02 03:33:30;;;;;;;37.80;16.23;;;;;;;41.51;36.95;100805.47;6101189;23;20517;-84
2023/03/02 03:35:56;;;;;;;22.27;11.20;;;;;;;41.56;36.41;100816.97;6100505;23;20437;-81
2023/03/02 03:38:22;;;;;;;30.80;13.37;;;;;;;41.65;36.72;100805.19;6100477;23;20718;-83
2023/03/02 03:40:48;;;;;;;23.80;11.60;;;;;;;41.91;36.94;100811.22;6100832;23;20851;-83
2023/03/02 03:43:15;;;;;;;32.40;12.60;;;;;;;42.01;36.34;100810.00;6100380;23;20481;-83
2023/03/02 03:45:41;;;;;;;33.50;11.73;;;;;;;41.72;36.33;100806.22;6100568;23;20405;-83
2023/03/02 03:48:08;;;;;;;24.57;11.97;;;;;;;41.61;36.45;100808.56;6100725;23;20774;-91
2023/03/02 03:50:35;;;;;;;28.53;11.87;;;;;;;41.77;36.18;100805.28;6101406;23;20426;-92
2023/03/02 03:53:03;;;;;;;24.87;13.27;;;;;;;41.79;35.84;100809.25;6100301;23;20401;-92
2023/03/02 03:55:34;;;;;;;31.53;14.50;;;;;;;41.58;36.36;100805.72;6099604;23;20442;-90
2023/03/02 03:58:01;;;;;;;26.17;10.17;;;;;;;41.74;36.14;100808.63;6101774;23;20417;-94
2023/03/02 04:00:34;;;;;;;29.20;13.63;;;;;;;41.70;36.12;100815.88;6100715;23;20469;-87
2023/03/02 04:03:05;;;;;;;26.37;11.60;;;;;;;41.79;36.25;100814.69;6101292;23;20875;-87
2023/03/02 04:05:32;;;;;;;27.70;15.00;;;;;;;41.77;35.65;100813.44;6101116;23;20402;-91
2023/03/02 04:08:00;;;;;;;28.10;13.87;;;;;;;41.82;35.77;100808.59;6100437;23;20473;-86
2023/03/02 04:10:27;;;;;;;31.40;12.57;;;;;;;41.78;35.53;100804.13;6100129;23;20753;-89
2023/03/02 04:12:54;;;;;;;31.43;11.60;;;;;;;41.80;36.17;100810.81;6099967;23;20386;-90
2023/03/02 04:15:23;;;;;;;32.20;14.03;;;;;;;41.84;36.09;100809.03;6101368;23;20425;-91
2023/03/02 04:17:50;;;;;;;27.97;12.10;;;;;;;41.89;36.53;100804.53;6101137;23;20870;-95
2023/03/02 04:20:27;;;;;;;36.40;12.30;;;;;;;41.76;36.44;100803.69;6101056;23;20385;-95
2023/03/02 04:23:01;;;;;;;34.03;12.17;;;;;;;41.39;37.12;100808.91;6124707;23;20467;-92
2023/03/02 04:25:31;;;;;;;31.50;15.70;;;;;;;41.38;37.59;100806.53;6102106;23;20413;-90
2023/03/02 04:28:02;;;;;;;29.93;13.10;;;;;;;41.61;37.44;100813.22;6116617;23;20444;-90
2023/03/02 04:30:28;;;;;;;24.57;11.37;;;;;;;41.57;36.87;100820.47;6100000;23;20440;-90
2023/03/02 04:32:56;;;;;;;32.20;14.20;;;;;;;41.74;36.75;100817.66;6100721;23;20901;-94
2023/03/02 04:35:44;;;;;;;45.23;13.93;;;;;;;41.57;37.03;100815.03;6100416;23;20760;-86
2023/03/02 04:38:10;;;;;;;23.03;12.63;;;;;;;41.74;36.63;100823.09;6120061;23;20393;-91
2023/03/02 04:40:36;;;;;;;30.20;12.20;;;;;;;41.71;36.23;100822.91;6100818;23;20735;-86
2023/03/02 04:43:02;;;;;;;29.23;12.70;;;;;;;41.83;36.30;100831.19;6099976;23;20382;-90
2023/03/02 04:45:28;;;;;;;22.53;12.10;;;;;;;41.68;36.90;100837.19;6100389;23;20420;-90
2023/03/02 04:47:54;;;;;;;23.50;12.50;;;;;;;41.53;37.25;100844.84;6099325;23;20422;-90
2023/03/02 04:50:20;;;;;;;36.00;11.77;;;;;;;41.55;37.09;100836.31;6100611;23;20825;-91
2023/03/02 04:52:46;;;;;;;29.30;12.23;;;;;;;41.58;37.22;100841.91;6098827;23;20784;-90
2023/03/02 04:55:21;;;;;;;35.00;14.10;;;;;;;41.51;37.11;100835.41;6100182;23;20441;-90
2023/03/02 04:57:48;;;;;;;25.37;15.37;;;;;;;41.73;36.55;100848.69;6100288;23;20413;-87
2023/03/02 05:00:15;;;;;;;38.00;11.73;;;;;;;41.65;35.97;100846.84;6098933;23;20390;-91
2023/03/02 05:02:43;;;;;;;25.83;12.67;;;;;;;41.61;36.14;100851.34;6123926;23;20418;-88
2023/03/02 05:05:21;;;;;;;29.20;12.33;;;;;;;41.52;36.46;100848.69;6100603;23;20394;-91
2023/03/02 05:07:50;;;;;;;39.57;14.70;;;;;;;41.45;36.80;100853.88;6126281;23;20866;-92
2023/03/02 05:10:46;;;;;;;27.00;12.37;;;;;;;41.43;36.92;100849.88;6100163;23;20458;-95
2023/03/02 05:13:16;;;;;;;32.23;12.00;;;;;;;41.52;37.45;100848.69;6099464;23;20404;-94
2023/03/02 05:15:45;;;;;;;30.63;12.33;;;;;;;41.52;37.12;100856.88;6100681;23;20732;-94
2023/03/02 05:18:12;;;;;;;30.70;13.30;;;;;;;41.70;36.93;100859.47;6100668;23;20386;-90
2023/03/02 05:20:39;;;;;;;27.07;14.07;;;;;;;41.64;37.29;100863.50;6100239;23;20405;-87
2023/03/02 05:23:07;;;;;;;38.17;15.03;;;;;;;41.65;36.86;100865.91;6099656;23;20879;-87
2023/03/02 05:25:35;;;;;;;30.77;12.77;;;;;;;41.54;37.11;100867.41;6100067;23;20445;-90
2023/03/02 05:28:01;;;;;;;23.67;14.03;;;;;;;41.62;36.86;100874.75;6100025;23;20459;-93
2023/03/02 05:30:29;;;;;;;31.70;12.47;;;;;;;41.69;36.62;100874.22;6099395;23;20438;-84
2023/03/02 05:32:55;;;;;;;33.17;15.60;;;;;;;41.66;36.61;100877.59;6098989;23;20401;-87
2023/03/02 05:35:22;;;;;;;32.47;13.47;;;;;;;41.72;36.27;100885.22;6099470;23;20414;-90
2023/03/02 05:37:48;;;;;;;29.47;14.57;;;;;;;41.74;36.70;100874.00;6099703;23;20417;-86
2023/03/02 05:40:19;;;;;;;30.53;11.13;;;;;;;41.67;36.65;100877.25;6099806;23;21371;-82
2023/03/02 05:42:47;;;;;;;28.00;13.90;;;;;;;41.57;36.42;100880.38;6124233;23;20702;-93
2023/03/02 05:45:28;;;;;;;22.93;13.53;;;;;;;41.83;36.28;100882.94;6100414;23;20959;-92
2023/03/02 05:47:55;;;;;;;39.40;14.63;;;;;;;41.77;36.20;100887.78;6099787;23;20870;-86
2023/03/02 05:50:21;;;;;;;32.70;14.10;;;;;;;41.79;36.56;100882.00;6099480;23;20429;-91
2023/03/02 05:52:47;;;;;;;32.10;13.43;;;;;;;41.85;36.31;100883.38;6099381;23;20410;-91
2023/03/02 05:55:15;;;;;;;40.57;13.57;;;;;;;41.77;36.36;100895.16;6099116;23;20448;-90
2023/03/02 05:57:41;;;;;;;34.73;17.40;;;;;;;41.57;36.72;100894.00;6099630;23;20417;-90
2023/03/02 06:00:09;;;;;;;31.73;14.50;;;;;;;41.67;36.78;100903.69;6099444;23;20469;-90
2023/03/02 06:02:36;;;;;;;30.93;13.03;;;;;;;41.79;36.86;100903.78;6125379;23;20437;-86
2023/03/02 06:05:03;;;;;;;24.30;13.50;;;;;;;41.62;36.65;100912.88;6125793;23;20392;-80
2023/03/02 06:07:28;;;;;;;30.03;13.97;;;;;;;41.70;36.78;100909.28;6099007;23;20382;-84
2023/03/02 06:09:54;;;;;;;26.03;13.17;;;;;;;41.83;36.38;100916.41;6124648;23;20366;-83
2023/03/02 06:12:20;;;;;;;33.90;14.40;;;;;;;41.61;36.62;100905.81;6098624;23;20465;-85
2023/03/02 06:14:46;;;;;;;23.63;13.87;;;;;;;41.53;36.82;100906.66;6099092;23;20469;-86
2023/03/02 06:17:13;;;;;;;31.70;14.20;;;;;;;41.59;36.97;100906.16;6099283;23;20382;-87
2023/03/02 06:19:41;;;;;;;31.90;15.13;;;;;;;41.64;36.89;100913.34;6123821;23;20401;-88
2023/03/02 06:22:07;;;;;;;29.90;12.93;;;;;;;41.53;36.96;100903.94;6099216;23;20382;-83
2023/03/02 06:24:34;;;;;;;33.23;14.00;;;;;;;41.67;36.55;100909.94;6098699;23;20386;-84
2023/03/02 06:26:59;;;;;;;25.87;14.17;;;;;;;41.68;36.62;100919.72;6098522;23;20382;-84
2023/03/02 06:29:25;;;;;;;29.80;14.90;;;;;;;41.65;37.19;100911.41;6098310;23;20396;-83
2023/03/02 06:31:51;;;;;;;34.17;15.13;;;;;;;41.78;36.68;100911.16;6098858;23;20440;-84
2023/03/02 06:34:17;;;;;;;22.00;13.20;;;;;;;41.72;36.78;100917.13;6125227;23;20370;-89
2023/03/02 06:36:43;;;;;;;31.07;14.10;;;;;;;41.60;36.91;100917.84;6099746;23;20413;-89
2023/03/02 06:39:15;;;;;;;26.47;15.13;;;;;;;41.84;36.78;100923.47;6101722;23;20731;-89
2023/03/02 06:41:43;;;;;;;31.43;14.20;;;;;;;41.84;36.72;100934.34;6101288;23;20420;-87
2023/03/02 06:44:09;;;;;;;28.83;12.60;;;;;;;41.84;36.44;100937.09;6127234;23;20358;-85
2023/03/02 06:46:38;;;;;;;26.57;13.67;;;;;;;41.88;36.63;100944.59;6101035;23;20397;-91
2023/03/02 06:49:05;;;;;;;31.80;13.60;;;;;;;41.82;36.33;100946.72;6076099;23;20390;-87
2023/03/02 06:51:31;;;;;;;31.60;16.60;;;;;;;41.70;36.77;100950.13;6099537;23;20430;-86
2023/03/02 06:53:57;;;;;;;33.67;15.87;;;;;;;41.74;36.49;100963.88;6098035;23;20379;-86
2023/03/02 06:56:23;;;;;;;28.83;12.30;;;;;;;41.78;36.62;100960.19;6099871;23;20528;-91
2023/03/02 06:58:49;;;;;;;22.57;12.10;;;;;;;41.61;36.90;100973.91;6098998;23;20394;-87
2023/03/02 07:01:15;;;;;;;26.73;12.80;;;;;;;41.60;37.39;100975.81;6097844;23;20397;-85
2023/03/02 07:03:42;;;;;;;35.33;13.70;;;;;;;41.63;37.17;100979.81;6124850;23;20355;-85
2023/03/02 07:06:09;;;;;;;30.53;12.63;;;;;;;41.67;36.97;100988.13;6100572;23;20444;-90
2023/03/02 07:08:35;;;;;;;25.50;12.17;;;;;;;41.60;37.25;100994.09;6100534;23;20382;-92
2023/03/02 07:11:11;;;;;;;37.07;12.97;;;;;;;41.56;37.16;101002.13;6101974;23;20825;-92
2023/03/02 07:13:38;;;;;;;43.57;13.47;;;;;;;41.45;37.39;101000.91;6103652;23;20408;-93
2023/03/02 07:16:56;;;;;;;27.70;14.70;;;;;;;41.71;37.01;101000.75;6129322;23;20401;-93
2023/03/02 07:19:23;;;;;;;30.47;13.13;;;;;;;41.77;36.95;101015.03;6124449;23;20390;-85
2023/03/02 07:21:49;;;;;;;27.70;13.77;;;;;;;41.58;36.50;101012.69;6101089;23;20706;-91
2023/03/02 07:24:18;;;;;;;25.77;11.77;;;;;;;41.60;36.49;101019.41;6101042;23;20877;-84
2023/03/02 07:26:49;;;;;;;22.97;12.63;;;;;;;41.71;36.71;101017.09;6127409;23;20401;-89
2023/03/02 07:29:15;;;;;;;36.87;13.80;;;;;;;41.81;36.84;101035.84;6077377;23;21011;-88
2023/03/02 07:31:43;;;;;;;22.53;13.03;;;;;;;41.73;37.06;101036.63;6127241;23;20410;-91
2023/03/02 07:34:10;;;;;;;33.50;14.63;;;;;;;41.91;37.05;101036.56;6101759;23;20468;-87
2023/03/02 07:36:37;;;;;;;57.90;15.93;;;;;;;41.97;36.35;101036.03;6099931;23;20803;-91
2023/03/02 07:39:05;;;;;;;32.07;14.20;;;;;;;42.02;36.27;101035.06;6100859;23;20411;-90
2023/03/02 07:41:33;;;;;;;38.03;16.27;;;;;;;42.12;36.24;101040.94;6101520;23;20398;-90
2023/03/02 07:44:00;;;;;;;30.67;15.30;;;;;;;42.16;36.45;101043.81;6101621;23;20393;-88
2023/03/02 07:46:29;;;;;;;30.20;13.10;;;;;;;42.10;36.44;101043.16;6124550;23;20413;-91
2023/03/02 07:48:57;;;;;;;21.87;12.90;;;;;;;42.22;36.59;101042.47;6099740;23;20394;-90
2023/03/02 07:51:24;;;;;;;26.80;13.20;;;;;;;42.14;36.27;101043.31;6100777;23;20820;-90
2023/03/02 07:53:50;;;;;;;31.63;12.50;;;;;;;42.26;36.05;101040.69;6099852;23;20398;-83
2023/03/02 07:56:19;;;;;;;27.67;13.10;;;;;;;42.29;36.06;101048.19;6100034;23;20449;-87
2023/03/02 07:58:45;;;;;;;26.50;13.83;;;;;;;42.26;36.28;101048.88;6100500;23;20387;-85
2023/03/02 08:01:17;;;;;;;22.23;12.10;;;;;;;42.18;36.16;101040.78;6099889;23;20382;-90
2023/03/02 08:03:48;;;;;;;35.73;12.70;;;;;;;42.28;36.12;101052.06;6100242;23;20386;-89
2023/03/02 08:06:19;;;;;;;31.80;15.07;;;;;;;42.11;36.00;101049.41;6124086;23;20389;-90
2023/03/02 08:08:45;;;;;;;29.30;15.47;;;;;;;42.00;36.42;101046.31;6100163;23;20397;-92
2023/03/02 08:11:15;;;;;;;23.63;15.00;;;;;;;42.21;36.08;101056.44;6100408;23;20434;-95
2023/03/02 08:13:46;;;;;;;28.83;14.13;;;;;;;41.98;36.78;101059.44;6077004;23;20460;-93
2023/03/02 08:16:40;;;;;;;37.10;15.83;;;;;;;41.74;36.91;101056.50;6102174;23;20925;-95
2023/03/02 08:19:14;;;;;;;27.23;14.83;;;;;;;41.94;37.04;101057.72;6125147;23;20882;-92
2023/03/02 08:22:09;;;;;;;31.33;11.77;;;;;;;41.93;36.74;101061.56;6124638;23;20818;-89
2023/03/02 08:24:46;;;;;;;25.27;13.40;;;;;;;42.14;36.44;101056.94;6101521;23;20401;-90
2023/03/02 08:27:13;;;;;;;26.60;14.10;;;;;;;42.23;35.94;101056.91;6126584;23;20369;-85
2023/03/02 08:29:40;;;;;;;27.80;11.10;;;;;;;42.31;35.81;101050.59;6100309;23;20452;-90
2023/03/02 08:32:06;;;;;;;33.07;14.43;;;;;;;42.23;36.43;101057.69;6100269;23;20977;-85
2023/03/02 08:34:32;;;;;;;25.60;12.53;;;;;;;42.46;35.97;101057.38;6099340;23;20405;-86
2023/03/02 08:36:59;;;;;;;29.00;13.47;;;;;;;42.39;35.99;101057.91;6100008;23;20448;-90
2023/03/02 08:39:29;;;;;;;26.37;12.63;;;;;;;42.40;35.87;101070.41;6099059;23;20402;-80
2023/03/02 08:42:04;;;;;;;31.37;13.00;;;;;;;42.34;35.88;101067.09;6099640;23;20413;-95
2023/03/02 08:44:50;;;;;;;34.67;12.43;;;;;;;42.37;35.86;101066.44;6126168;23;20933;-89
2023/03/02 08:47:20;;;;;;;36.77;14.70;;;;;;;42.11;36.42;101072.03;6100668;23;20389;-91
2023/03/02 08:49:50;;;;;;;39.17;15.33;;;;;;;41.91;36.22;101086.41;6127534;23;20402;-93
2023/03/02 08:55:19;;;;;;;37.27;12.87;;;;;;;42.09;36.09;101106.19;6124640;23;20484;-90
2023/03/02 08:57:46;;;;;;;24.93;12.90;;;;;;;42.29;35.43;101107.38;6121194;23;20405;-86
2023/03/02 09:00:34;;;;;;;39.40;13.10;;;;;;;42.40;35.65;101112.09;6124508;23;20398;-92
2023/03/02 09:03:01;;;;;;;28.80;13.30;;;;;;;42.40;35.95;101111.31;6100524;23;20386;-86
2023/03/02 09:05:27;;;;;;;38.00;13.93;;;;;;;42.55;35.67;101120.84;6102513;23;20452;-82
2023/03/02 09:07:53;;;;;;;39.93;14.00;;;;;;;42.26;35.70;101125.19;6100129;23;20417;-83
2023/03/02 09:10:19;;;;;;;27.80;11.63;;;;;;;42.37;35.94;101122.91;6124432;23;20440;-83
2023/03/02 09:12:55;;;;;;;29.90;15.10;;;;;;;42.50;35.64;101123.78;6099510;23;20390;-92
2023/03/02 09:15:21;;;;;;;25.00;13.57;;;;;;;42.48;35.40;101128.75;6074734;23;20401;-83
2023/03/02 09:17:48;;;;;;;41.67;12.40;;;;;;;42.52;35.57;101130.47;6099506;23;20394;-88
2023/03/02 09:20:14;;;;;;;34.00;13.80;;;;;;;42.54;35.55;101128.25;6125232;23;20390;-94
2023/03/02 09:22:46;;;;;;;27.80;14.03;;;;;;;42.67;35.25;101125.59;6099269;23;20469;-82
2023/03/02 09:25:12;;;;;;;27.20;13.33;;;;;;;42.74;35.17;101132.13;6125374;23;20850;-83
2023/03/02 09:27:38;;;;;;;20.77;12.20;;;;;;;42.74;35.33;101128.59;6099523;23;20402;-83
2023/03/02 09:30:05;;;;;;;27.43;14.30;;;;;;;42.81;35.18;101126.13;6098940;23;20954;-86
2023/03/02 09:32:31;;;;;;;34.10;11.70;;;;;;;42.73;35.47;101121.53;6123930;23;20441;-84
2023/03/02 09:34:57;;;;;;;32.00;12.03;;;;;;;42.73;35.54;101114.16;6100723;23;20497;-88
2023/03/02 09:37:23;;;;;;;24.23;11.67;;;;;;;42.66;35.55;101127.50;6099974;23;20389;-88
2023/03/02 09:39:49;;;;;;;29.30;12.73;;;;;;;42.53;35.57;101125.81;6100502;23;20441;-87
2023/03/02 09:42:39;;;;;;;29.63;12.23;;;;;;;42.68;35.27;101119.81;6126304;23;20358;-88
2023/03/02 09:45:22;;;;;;;26.80;11.13;;;;;;;42.58;35.29;101118.25;6099353;23;20393;-86
2023/03/02 09:48:00;;;;;;;30.83;12.13;;;;;;;42.51;35.36;101111.72;6098856;23;20392;-86
2023/03/02 09:50:29;;;;;;;40.10;12.80;;;;;;;42.60;35.74;101113.28;6098877;23;20429;-85
2023/03/02 09:53:25;;;;;;;23.53;11.40;;;;;;;42.66;35.50;101122.06;6099264;23;20394;-83
2023/03/02 09:55:57;;;;;;;19.67;11.00;;;;;;;42.61;35.47;101111.38;6123991;23;20941;-91
2023/03/02 09:58:36;;;;;;;27.60;11.57;;;;;;;42.39;35.53;101113.25;6100979;23;20394;-85
2023/03/02 10:01:09;;;;;;;27.80;12.83;;;;;;;42.46;35.55;101123.63;6099062;23;20394;-79
2023/03/02 10:03:55;;;;;;;35.83;12.73;;;;;;;42.58;35.33;101117.47;6098857;23;20453;-79
2023/03/02 10:06:22;;;;;;;23.60;10.83;;;;;;;42.81;35.12;101118.72;6099139;23;20413;-82
2023/03/02 10:08:49;;;;;;;31.13;14.73;;;;;;;42.73;37.84;101116.88;6098819;23;20883;-83
2023/03/02 10:11:28;;;;;;;27.73;13.13;;;;;;;42.57;35.94;101118.56;6098828;23;20430;-84
2023/03/02 10:14:05;;;;;;;29.47;15.87;;;;;;;42.73;35.83;101116.09;6099008;23;20396;-80
2023/03/02 10:16:48;;;;;;;31.20;13.73;;;;;;;42.40;35.60;101112.09;6098661;23;20396;-83
2023/03/02 10:19:41;;;;;;;33.57;12.37;;;;;;;42.50;35.82;101105.47;6098978;23;20750;-80
2023/03/02 10:22:15;;;;;;;34.00;11.80;;;;;;;42.64;35.56;101099.78;6124306;23;20453;-80
2023/03/02 10:25:28;;;;;;;27.13;11.13;;;;;;;42.66;35.50;101092.03;6124682;23;20370;-77
2023/03/02 10:28:15;;;;;;;28.83;13.40;;;;;;;42.27;35.99;101088.63;6115936;23;20697;-77
2023/03/02 10:30:42;;;;;;;35.23;13.10;;;;;;;42.47;35.73;101086.25;6098848;23;20461;-78
2023/03/02 10:33:20;;;;;;;36.27;16.83;;;;;;;42.52;35.35;101089.56;6098874;23;20390;-78
2023/03/02 10:35:49;;;;;;;28.13;10.93;;;;;;;42.63;35.06;101090.00;6099001;23;20437;-78
2023/03/02 10:38:18;;;;;;;20.97;12.07;;;;;;;42.79;35.22;101079.28;6099055;23;20386;-78
2023/03/02 10:41:17;;;;;;;25.13;12.40;;;;;;;43.09;34.77;101079.94;6097799;23;20386;-77
2023/03/02 10:43:54;;;;;;;23.03;12.27;;;;;;;43.17;34.42;101076.34;6080315;23;20845;-77
2023/03/02 10:46:20;;;;;;;29.40;11.63;;;;;;;43.03;34.80;101084.03;6097103;23;20469;-77
2023/03/02 10:48:50;;;;;;;24.77;10.70;;;;;;;42.82;34.92;101078.59;6122475;23;20366;-78
2023/03/02 10:51:29;;;;;;;25.70;13.10;;;;;;;42.79;34.96;101073.81;6096255;23;20430;-77
2023/03/02 10:54:15;;;;;;;37.37;12.70;;;;;;;42.71;35.14;101069.22;6098509;23;20437;-77
2023/03/02 10:56:47;;;;;;;30.40;11.70;;;;;;;43.06;34.51;101070.50;6098315;23;20822;-77
2023/03/02 10:59:28;;;;;;;38.50;13.13;;;;;;;43.12;34.62;101071.09;6097962;23;20429;-77
2023/03/02 11:02:02;;;;;;;27.73;14.90;;;;;;;43.14;35.01;101064.16;6098511;23;20472;-84
2023/03/02 11:04:29;;;;;;;38.67;13.67;;;;;;;42.97;35.07;101067.06;6099078;23;20418;-82
2023/03/02 11:07:05;;;;;;;29.40;11.63;;;;;;;42.97;34.71;101061.59;6098695;23;20386;-84
2023/03/02 11:09:31;;;;;;;22.83;11.37;;;;;;;42.99;34.79;101074.94;6098868;23;20420;-81
2023/03/02 11:11:59;;;;;;;29.00;12.53;;;;;;;42.68;35.29;101067.97;6098678;23;20450;-82
2023/03/02 11:14:25;;;;;;;30.73;13.13;;;;;;;42.74;35.73;101069.38;6124887;23;20942;-81
2023/03/02 11:16:52;;;;;;;24.50;11.67;;;;;;;43.05;35.24;101068.94;6124653;23;20354;-81
2023/03/02 11:19:40;;;;;;;19.47;13.83;;;;;;;42.77;35.24;101063.22;6098952;23;20382;-82
2023/03/02 11:22:21;;;;;;;17.13;9.10;;;;;;;42.98;34.78;101062.41;6098189;23;20749;-82
2023/03/02 11:24:52;;;;;;;25.93;11.77;;;;;;;43.22;34.18;101057.03;6124307;23;20417;-83
2023/03/02 11:27:23;;;;;;;22.87;11.17;;;;;;;43.16;34.60;101055.66;6100723;23;20409;-82
2023/03/02 11:29:56;;;;;;;22.97;11.40;;;;;;;43.04;34.75;101056.41;6100486;23;20895;-79